sensor_id;sensor_type;location;lat;lon;timestamp;P1;durP1;ratioP1;P2;durP2;ratioP2
74912;SDS011;63878;55.624;37.304;2022-12-29T00:09:48;4.53;;;0.77;;
74912;SDS011;63878;55.624;37.304;2022-12-29T00:19:49;5.20;;;0.90;;
74912;SDS011;63878;55.624;37.304;2022-12-29T00:29:49;3.80;;;1.10;;
74912;SDS011;63878;55.624;37.304;2022-12-29T00:39:50;4.97;;;1.33;;
74912;SDS011;63878;55.624;37.304;2022-12-29T00:49:50;2.90;;;0.90;;
74912;SDS011;63878;55.624;37.304;2022-12-29T00:59:51;6.20;;;1.38;;
74912;SDS011;63878;55.624;37.304;2022-12-29T01:09:51;5.43;;;1.15;;
74912;SDS011;63878;55.624;37.304;2022-12-29T01:19:51;5.47;;;1.50;;
74912;SDS011;63878;55.624;37.304;2022-12-29T01:29:52;4.93;;;1.40;;
74912;SDS011;63878;55.624;37.304;2022-12-29T01:39:52;5.60;;;1.60;;
74912;SDS011;63878;55.624;37.304;2022-12-29T01:49:54;6.10;;;1.25;;
74912;SDS011;63878;55.624;37.304;2022-12-29T02:00:01;3.40;;;1.20;;
74912;SDS011;63878;55.624;37.304;2022-12-29T02:30:42;3.72;;;1.60;;
74912;SDS011;63878;55.624;37.304;2022-12-29T02:41:23;9.65;;;1.77;;
74912;SDS011;63878;55.624;37.304;2022-12-29T02:51:37;7.30;;;1.80;;
74912;SDS011;63878;55.624;37.304;2022-12-29T03:22:21;5.53;;;1.73;;
74912;SDS011;63878;55.624;37.304;2022-12-29T03:32:26;5.25;;;1.75;;
74912;SDS011;63878;55.624;37.304;2022-12-29T03:42:33;4.60;;;2.20;;
74912;SDS011;63878;55.624;37.304;2022-12-29T03:52:36;4.88;;;1.80;;
74912;SDS011;63878;55.624;37.304;2022-12-29T04:02:36;8.60;;;2.25;;
74912;SDS011;63878;55.624;37.304;2022-12-29T04:12:37;8.45;;;1.75;;
74912;SDS011;63878;55.624;37.304;2022-12-29T04:32:38;2.85;;;1.25;;
74912;SDS011;63878;55.624;37.304;2022-12-29T04:42:38;6.90;;;1.90;;
74912;SDS011;63878;55.624;37.304;2022-12-29T04:52:39;4.47;;;1.80;;
74912;SDS011;63878;55.624;37.304;2022-12-29T05:12:39;4.80;;;2.05;;
74912;SDS011;63878;55.624;37.304;2022-12-29T05:22:40;4.03;;;1.90;;
74912;SDS011;63878;55.624;37.304;2022-12-29T05:32:40;4.78;;;1.33;;
74912;SDS011;63878;55.624;37.304;2022-12-29T05:42:41;3.97;;;2.15;;
74912;SDS011;63878;55.624;37.304;2022-12-29T05:52:42;2.77;;;1.10;;
74912;SDS011;63878;55.624;37.304;2022-12-29T06:02:42;3.30;;;1.65;;
74912;SDS011;63878;55.624;37.304;2022-12-29T06:12:43;4.32;;;2.10;;
74912;SDS011;63878;55.624;37.304;2022-12-29T06:22:45;5.93;;;1.50;;
74912;SDS011;63878;55.624;37.304;2022-12-29T06:32:45;3.67;;;1.83;;
74912;SDS011;63878;55.624;37.304;2022-12-29T06:42:46;7.07;;;2.77;;
74912;SDS011;63878;55.624;37.304;2022-12-29T06:52:47;12.63;;;4.27;;
74912;SDS011;63878;55.624;37.304;2022-12-29T07:02:47;7.10;;;3.28;;
74912;SDS011;63878;55.624;37.304;2022-12-29T07:12:50;15.05;;;4.38;;
74912;SDS011;63878;55.624;37.304;2022-12-29T07:22:51;11.17;;;4.47;;
74912;SDS011;63878;55.624;37.304;2022-12-29T07:32:53;10.63;;;5.63;;
74912;SDS011;63878;55.624;37.304;2022-12-29T07:42:54;9.10;;;4.50;;
74912;SDS011;63878;55.624;37.304;2022-12-29T07:52:55;6.20;;;2.88;;
74912;SDS011;63878;55.624;37.304;2022-12-29T08:12:58;8.80;;;3.88;;
